sensor_id;sensor_type;location;lat;lon;timestamp;P1;durP1;ratioP1;P2;durP2;ratioP2
19985;SDS011;10154;52.474;10.768;2023-03-30T00:00:39;22.87;;;12.87;;
19985;SDS011;10154;52.474;10.768;2023-03-30T00:03:07;23.80;;;12.90;;
19985;SDS011;10154;52.474;10.768;2023-03-30T00:05:34;23.73;;;13.10;;
19985;SDS011;10154;52.474;10.768;2023-03-30T00:08:00;23.10;;;12.83;;
19985;SDS011;10154;52.474;10.768;2023-03-30T00:10:26;24.07;;;12.73;;
19985;SDS011;10154;52.474;10.768;2023-03-30T00:12:53;22.93;;;12.80;;
19985;SDS011;10154;52.474;10.768;2023-03-30T00:15:19;24.27;;;14.20;;
19985;SDS011;10154;52.474;10.768;2023-03-30T00:17:46;23.40;;;13.00;;
19985;SDS011;10154;52.474;10.768;2023-03-30T00:20:19;29.77;;;13.77;;
19985;SDS011;10154;52.474;10.768;2023-03-30T00:22:45;28.83;;;13.53;;
19985;SDS011;10154;52.474;10.768;2023-03-30T00:25:12;24.03;;;13.77;;
19985;SDS011;10154;52.474;10.768;2023-03-30T00:27:39;31.93;;;14.10;;
19985;SDS011;10154;52.474;10.768;2023-03-30T00:30:12;27.27;;;14.50;;
19985;SDS011;10154;52.474;10.768;2023-03-30T00:32:39;25.13;;;14.60;;
19985;SDS011;10154;52.474;10.768;2023-03-30T00:35:05;26.33;;;14.43;;
19985;SDS011;10154;52.474;10.768;2023-03-30T00:37:31;26.63;;;14.17;;
19985;SDS011;10154;52.474;10.768;2023-03-30T00:39:57;24.40;;;14.70;;
19985;SDS011;10154;52.474;10.768;2023-03-30T00:42:25;27.53;;;14.47;;
19985;SDS011;10154;52.474;10.768;2023-03-30T00:45:07;22.80;;;14.17;;
19985;SDS011;10154;52.474;10.768;2023-03-30T00:50:15;28.83;;;15.63;;
19985;SDS011;10154;52.474;10.768;2023-03-30T00:52:42;30.00;;;15.77;;
19985;SDS011;10154;52.474;10.768;2023-03-30T00:55:09;25.73;;;14.87;;
19985;SDS011;10154;52.474;10.768;2023-03-30T00:57:36;27.20;;;14.43;;
19985;SDS011;10154;52.474;10.768;2023-03-30T01:00:04;25.03;;;14.20;;
19985;SDS011;10154;52.474;10.768;2023-03-30T01:02:32;26.93;;;15.33;;
19985;SDS011;10154;52.474;10.768;2023-03-30T01:05:01;27.13;;;14.93;;
19985;SDS011;10154;52.474;10.768;2023-03-30T01:07:30;27.07;;;15.53;;
19985;SDS011;10154;52.474;10.768;2023-03-30T01:09:57;27.40;;;15.07;;
19985;SDS011;10154;52.474;10.768;2023-03-30T01:12:22;25.80;;;14.53;;
19985;SDS011;10154;52.474;10.768;2023-03-30T01:14:48;23.90;;;13.93;;
19985;SDS011;10154;52.474;10.768;2023-03-30T01:28:57;23.20;;;13.67;;
19985;SDS011;10154;52.474;10.768;2023-03-30T01:40:26;22.63;;;12.67;;
19985;SDS011;10154;52.474;10.768;2023-03-30T01:42:57;24.97;;;13.20;;
19985;SDS011;10154;52.474;10.768;2023-03-30T01:45:29;24.13;;;13.50;;
19985;SDS011;10154;52.474;10.768;2023-03-30T01:48:06;27.10;;;13.23;;
19985;SDS011;10154;52.474;10.768;2023-03-30T01:50:38;27.03;;;14.07;;
19985;SDS011;10154;52.474;10.768;2023-03-30T01:58:16;29.27;;;14.23;;
19985;SDS011;10154;52.474;10.768;2023-03-30T02:01:03;22.80;;;13.13;;
19985;SDS011;10154;52.474;10.768;2023-03-30T02:03:34;27.97;;;14.23;;
19985;SDS011;10154;52.474;10.768;2023-03-30T02:06:04;29.00;;;13.70;;
19985;SDS011;10154;52.474;10.768;2023-03-30T02:08:34;25.10;;;13.43;;
19985;SDS011;10154;52.474;10.768;2023-03-30T02:11:01;28.93;;;14.63;;
19985;SDS011;10154;52.474;10.768;2023-03-30T02:13:30;22.67;;;12.83;;
19985;SDS011;10154;52.474;10.768;2023-03-30T02:16:03;27.80;;;14.53;;
19985;SDS011;10154;52.474;10.768;2023-03-30T02:18:34;26.00;;;13.93;;
19985;SDS011;10154;52.474;10.768;2023-03-30T02:21:02;28.47;;;13.63;;
19985;SDS011;10154;52.474;10.768;2023-03-30T02:23:29;28.10;;;15.00;;
19985;SDS011;10154;52.474;10.768;2023-03-30T02:25:59;30.13;;;14.93;;
19985;SDS011;10154;52.474;10.768;2023-03-30T02:28:24;29.63;;;15.40;;
19985;SDS011;10154;52.474;10.768;2023-03-30T02:30:50;31.70;;;15.63;;
19985;SDS011;10154;52.474;10.768;2023-03-30T02:36:16;35.83;;;16.77;;
19985;SDS011;10154;52.474;10.768;2023-03-30T02:45:17;32.53;;;17.17;;
19985;SDS011;10154;52.474;10.768;2023-03-30T02:50:32;30.40;;;16.10;;
19985;SDS011;10154;52.474;10.768;2023-03-30T02:55:59;30.43;;;16.70;;
19985;SDS011;10154;52.474;10.768;2023-03-30T03:01:21;30.33;;;15.57;;
19985;SDS011;10154;52.474;10.768;2023-03-30T03:03:53;30.67;;;16.40;;
19985;SDS011;10154;52.474;10.768;2023-03-30T03:06:22;28.27;;;15.57;;
19985;SDS011;10154;52.474;10.768;2023-03-30T03:08:48;27.47;;;14.60;;
19985;SDS011;10154;52.474;10.768;2023-03-30T03:11:14;27.57;;;14.97;;
19985;SDS011;10154;52.474;10.768;2023-03-30T03:13:40;27.73;;;14.23;;
19985;SDS011;10154;52.474;10.768;2023-03-30T03:16:09;24.27;;;14.13;;
19985;SDS011;10154;52.474;10.768;2023-03-30T03:18:36;33.57;;;15.07;;
19985;SDS011;10154;52.474;10.768;2023-03-30T03:21:04;24.03;;;13.43;;
19985;SDS011;10154;52.474;10.768;2023-03-30T03:23:31;26.80;;;14.17;;
19985;SDS011;10154;52.474;10.768;2023-03-30T03:25:56;26.00;;;14.77;;
19985;SDS011;10154;52.474;10.768;2023-03-30T03:28:21;25.07;;;14.50;;
19985;SDS011;10154;52.474;10.768;2023-03-30T03:30:47;28.63;;;14.73;;
19985;SDS011;10154;52.474;10.768;2023-03-30T03:33:13;25.87;;;14.30;;
19985;SDS011;10154;52.474;10.768;2023-03-30T03:35:38;32.70;;;14.53;;
19985;SDS011;10154;52.474;10.768;2023-03-30T03:38:04;24.43;;;13.97;;
19985;SDS011;10154;52.474;10.768;2023-03-30T03:40:31;26.80;;;13.30;;
19985;SDS011;10154;52.474;10.768;2023-03-30T03:42:57;24.93;;;13.63;;
19985;SDS011;10154;52.474;10.768;2023-03-30T03:45:22;26.17;;;13.87;;
19985;SDS011;10154;52.474;10.768;2023-03-30T03:47:51;24.53;;;14.20;;
19985;SDS011;10154;52.474;10.768;2023-03-30T03:50:16;25.27;;;12.83;;
19985;SDS011;10154;52.474;10.768;2023-03-30T03:52:42;22.80;;;12.23;;
19985;SDS011;10154;52.474;10.768;2023-03-30T03:55:08;21.63;;;11.03;;
19985;SDS011;10154;52.474;10.768;2023-03-30T03:57:33;20.57;;;10.90;;
19985;SDS011;10154;52.474;10.768;2023-03-30T03:59:59;19.57;;;11.57;;
19985;SDS011;10154;52.474;10.768;2023-03-30T04:02:25;19.57;;;11.43;;
19985;SDS011;10154;52.474;10.768;2023-03-30T04:04:51;23.37;;;10.60;;
19985;SDS011;10154;52.474;10.768;2023-03-30T04:07:17;21.10;;;9.80;;
19985;SDS011;10154;52.474;10.768;2023-03-30T04:09:42;19.60;;;10.37;;
19985;SDS011;10154;52.474;10.768;2023-03-30T04:12:08;28.43;;;10.83;;
19985;SDS011;10154;52.474;10.768;2023-03-30T04:14:33;19.07;;;10.13;;
19985;SDS011;10154;52.474;10.768;2023-03-30T04:16:59;18.93;;;9.80;;
19985;SDS011;10154;52.474;10.768;2023-03-30T04:19:24;20.27;;;10.10;;
19985;SDS011;10154;52.474;10.768;2023-03-30T04:21:54;17.23;;;10.30;;
19985;SDS011;10154;52.474;10.768;2023-03-30T04:24:20;20.17;;;9.93;;
19985;SDS011;10154;52.474;10.768;2023-03-30T04:26:46;22.57;;;10.53;;
19985;SDS011;10154;52.474;10.768;2023-03-30T04:29:16;19.73;;;9.10;;
19985;SDS011;10154;52.474;10.768;2023-03-30T04:31:42;18.00;;;9.00;;
19985;SDS011;10154;52.474;10.768;2023-03-30T04:34:11;17.23;;;8.00;;
19985;SDS011;10154;52.474;10.768;2023-03-30T04:36:37;14.47;;;7.50;;
19985;SDS011;10154;52.474;10.768;2023-03-30T04:39:03;18.00;;;6.90;;
19985;SDS011;10154;52.474;10.768;2023-03-30T04:41:32;11.73;;;5.80;;
19985;SDS011;10154;52.474;10.768;2023-03-30T04:44:04;14.43;;;5.63;;
19985;SDS011;10154;52.474;10.768;2023-03-30T04:46:31;12.83;;;5.90;;
19985;SDS011;10154;52.474;10.768;2023-03-30T04:48:57;12.57;;;5.60;;
19985;SDS011;10154;52.474;10.768;2023-03-30T04:51:23;14.20;;;5.77;;
19985;SDS011;10154;52.474;10.768;2023-03-30T04:53:48;12.30;;;5.70;;
19985;SDS011;10154;52.474;10.768;2023-03-30T04:56:14;11.60;;;5.03;;
19985;SDS011;10154;52.474;10.768;2023-03-30T04:58:42;8.17;;;4.73;;
19985;SDS011;10154;52.474;10.768;2023-03-30T05:01:14;10.83;;;4.67;;
19985;SDS011;10154;52.474;10.768;2023-03-30T05:03:39;10.87;;;5.10;;
19985;SDS011;10154;52.474;10.768;2023-03-30T05:06:05;9.00;;;5.00;;
19985;SDS011;10154;52.474;10.768;2023-03-30T05:08:33;8.60;;;5.17;;
19985;SDS011;10154;52.474;10.768;2023-03-30T05:10:59;12.37;;;5.07;;
19985;SDS011;10154;52.474;10.768;2023-03-30T05:13:26;10.83;;;4.90;;
19985;SDS011;10154;52.474;10.768;2023-03-30T05:15:53;12.07;;;5.10;;
19985;SDS011;10154;52.474;10.768;2023-03-30T05:18:18;10.90;;;5.07;;
19985;SDS011;10154;52.474;10.768;2023-03-30T05:20:44;12.97;;;5.17;;
19985;SDS011;10154;52.474;10.768;2023-03-30T05:23:10;10.30;;;4.60;;
19985;SDS011;10154;52.474;10.768;2023-03-30T05:25:35;11.90;;;5.23;;
19985;SDS011;10154;52.474;10.768;2023-03-30T05:28:00;11.77;;;5.17;;
19985;SDS011;10154;52.474;10.768;2023-03-30T05:30:26;9.57;;;5.23;;
19985;SDS011;10154;52.474;10.768;2023-03-30T05:32:51;8.57;;;4.67;;
19985;SDS011;10154;52.474;10.768;2023-03-30T05:35:17;11.87;;;5.20;;
19985;SDS011;10154;52.474;10.768;2023-03-30T05:37:42;9.80;;;4.73;;
19985;SDS011;10154;52.474;10.768;2023-03-30T05:40:07;10.23;;;4.73;;
19985;SDS011;10154;52.474;10.768;2023-03-30T05:42:34;10.63;;;4.43;;
19985;SDS011;10154;52.474;10.768;2023-03-30T05:45:00;9.37;;;4.53;;
19985;SDS011;10154;52.474;10.768;2023-03-30T05:47:25;9.27;;;4.87;;
19985;SDS011;10154;52.474;10.768;2023-03-30T05:49:52;16.87;;;4.80;;
19985;SDS011;10154;52.474;10.768;2023-03-30T05:52:18;9.70;;;4.50;;
19985;SDS011;10154;52.474;10.768;2023-03-30T05:54:43;11.13;;;4.57;;
19985;SDS011;10154;52.474;10.768;2023-03-30T05:57:08;10.13;;;4.40;;
19985;SDS011;10154;52.474;10.768;2023-03-30T05:59:34;8.47;;;3.90;;
19985;SDS011;10154;52.474;10.768;2023-03-30T06:01:59;10.40;;;4.27;;
19985;SDS011;10154;52.474;10.768;2023-03-30T06:04:25;9.37;;;4.20;;
19985;SDS011;10154;52.474;10.768;2023-03-30T06:06:51;6.60;;;3.90;;
19985;SDS011;10154;52.474;10.768;2023-03-30T06:09:17;13.33;;;4.30;;
19985;SDS011;10154;52.474;10.768;2023-03-30T06:11:42;10.27;;;4.00;;
19985;SDS011;10154;52.474;10.768;2023-03-30T06:14:08;7.93;;;3.83;;
19985;SDS011;10154;52.474;10.768;2023-03-30T06:16:34;10.70;;;3.87;;
19985;SDS011;10154;52.474;10.768;2023-03-30T06:19:01;13.53;;;4.23;;
19985;SDS011;10154;52.474;10.768;2023-03-30T06:21:26;6.33;;;3.70;;
19985;SDS011;10154;52.474;10.768;2023-03-30T06:23:52;5.77;;;3.50;;
19985;SDS011;10154;52.474;10.768;2023-03-30T06:26:17;8.67;;;4.37;;
19985;SDS011;10154;52.474;10.768;2023-03-30T06:28:42;9.03;;;3.50;;
19985;SDS011;10154;52.474;10.768;2023-03-30T06:31:08;8.37;;;3.40;;
19985;SDS011;10154;52.474;10.768;2023-03-30T06:33:34;10.00;;;3.63;;
19985;SDS011;10154;52.474;10.768;2023-03-30T06:36:00;7.07;;;3.77;;
19985;SDS011;10154;52.474;10.768;2023-03-30T06:38:26;9.23;;;3.30;;
19985;SDS011;10154;52.474;10.768;2023-03-30T06:40:51;7.00;;;3.30;;
19985;SDS011;10154;52.474;10.768;2023-03-30T06:43:17;6.30;;;3.50;;
19985;SDS011;10154;52.474;10.768;2023-03-30T06:45:48;9.30;;;3.30;;
19985;SDS011;10154;52.474;10.768;2023-03-30T06:48:18;9.23;;;3.33;;
19985;SDS011;10154;52.474;10.768;2023-03-30T06:50:47;6.63;;;2.70;;
19985;SDS011;10154;52.474;10.768;2023-03-30T06:53:13;10.03;;;3.07;;
19985;SDS011;10154;52.474;10.768;2023-03-30T06:55:38;9.07;;;3.03;;
19985;SDS011;10154;52.474;10.768;2023-03-30T06:58:04;8.10;;;2.93;;
19985;SDS011;10154;52.474;10.768;2023-03-30T07:00:30;10.47;;;3.00;;
19985;SDS011;10154;52.474;10.768;2023-03-30T07:02:55;9.97;;;2.83;;
19985;SDS011;10154;52.474;10.768;2023-03-30T07:05:21;19.03;;;3.60;;
19985;SDS011;10154;52.474;10.768;2023-03-30T07:07:50;8.30;;;2.90;;
19985;SDS011;10154;52.474;10.768;2023-03-30T07:10:19;10.97;;;2.93;;
19985;SDS011;10154;52.474;10.768;2023-03-30T07:12:44;8.83;;;2.80;;
19985;SDS011;10154;52.474;10.768;2023-03-30T07:15:10;6.37;;;2.80;;
19985;SDS011;10154;52.474;10.768;2023-03-30T07:17:36;5.67;;;2.63;;
19985;SDS011;10154;52.474;10.768;2023-03-30T07:20:02;9.43;;;3.20;;
19985;SDS011;10154;52.474;10.768;2023-03-30T07:22:29;6.93;;;2.93;;
19985;SDS011;10154;52.474;10.768;2023-03-30T07:24:55;8.83;;;2.70;;
19985;SDS011;10154;52.474;10.768;2023-03-30T07:27:21;9.03;;;2.80;;
19985;SDS011;10154;52.474;10.768;2023-03-30T07:29:48;6.27;;;2.20;;
19985;SDS011;10154;52.474;10.768;2023-03-30T07:32:17;7.83;;;2.47;;
19985;SDS011;10154;52.474;10.768;2023-03-30T07:34:43;5.50;;;2.47;;
19985;SDS011;10154;52.474;10.768;2023-03-30T07:37:08;6.37;;;2.37;;
19985;SDS011;10154;52.474;10.768;2023-03-30T07:39:34;6.37;;;2.57;;
19985;SDS011;10154;52.474;10.768;2023-03-30T07:42:00;8.93;;;2.87;;
19985;SDS011;10154;52.474;10.768;2023-03-30T07:44:26;7.03;;;2.57;;
19985;SDS011;10154;52.474;10.768;2023-03-30T07:46:53;10.90;;;2.53;;
19985;SDS011;10154;52.474;10.768;2023-03-30T07:49:19;6.17;;;2.40;;
19985;SDS011;10154;52.474;10.768;2023-03-30T07:51:45;4.33;;;2.30;;
19985;SDS011;10154;52.474;10.768;2023-03-30T07:54:11;10.30;;;2.60;;
19985;SDS011;10154;52.474;10.768;2023-03-30T07:56:36;7.63;;;2.47;;
19985;SDS011;10154;52.474;10.768;2023-03-30T07:59:03;9.07;;;2.60;;
19985;SDS011;10154;52.474;10.768;2023-03-30T08:01:30;4.97;;;2.40;;
19985;SDS011;10154;52.474;10.768;2023-03-30T08:03:56;7.50;;;2.37;;
19985;SDS011;10154;52.474;10.768;2023-03-30T08:06:22;6.13;;;2.30;;
19985;SDS011;10154;52.474;10.768;2023-03-30T08:08:48;6.57;;;2.20;;
19985;SDS011;10154;52.474;10.768;2023-03-30T08:11:13;9.30;;;2.43;;
19985;SDS011;10154;52.474;10.768;2023-03-30T08:13:40;7.23;;;2.20;;
19985;SDS011;10154;52.474;10.768;2023-03-30T08:16:05;6.63;;;2.37;;
19985;SDS011;10154;52.474;10.768;2023-03-30T08:18:32;10.37;;;2.60;;
19985;SDS011;10154;52.474;10.768;2023-03-30T08:20:58;5.07;;;2.10;;
19985;SDS011;10154;52.474;10.768;2023-03-30T08:23:23;13.13;;;2.10;;
19985;SDS011;10154;52.474;10.768;2023-03-30T08:25:49;9.73;;;2.50;;
19985;SDS011;10154;52.474;10.768;2023-03-30T08:28:17;5.80;;;2.30;;
19985;SDS011;10154;52.474;10.768;2023-03-30T08:30:43;9.17;;;2.17;;
19985;SDS011;10154;52.474;10.768;2023-03-30T08:33:09;9.40;;;2.30;;
19985;SDS011;10154;52.474;10.768;2023-03-30T08:35:34;8.67;;;2.47;;
19985;SDS011;10154;52.474;10.768;2023-03-30T08:38:00;10.30;;;2.13;;
19985;SDS011;10154;52.474;10.768;2023-03-30T08:40:25;6.35;;;2.40;;
19985;SDS011;10154;52.474;10.768;2023-03-30T08:43:29;10.02;;;2.20;;
19985;SDS011;10154;52.474;10.768;2023-03-30T08:46:01;9.85;;;2.50;;
19985;SDS011;10154;52.474;10.768;2023-03-30T08:48:31;8.75;;;2.15;;
19985;SDS011;10154;52.474;10.768;2023-03-30T08:51:03;4.60;;;1.95;;
19985;SDS011;10154;52.474;10.768;2023-03-30T08:53:32;6.53;;;2.05;;
19985;SDS011;10154;52.474;10.768;2023-03-30T09:01:08;7.47;;;2.30;;
19985;SDS011;10154;52.474;10.768;2023-03-30T09:04:04;8.55;;;2.20;;
19985;SDS011;10154;52.474;10.768;2023-03-30T09:09:17;7.32;;;2.30;;
19985;SDS011;10154;52.474;10.768;2023-03-30T09:11:44;8.80;;;2.40;;
19985;SDS011;10154;52.474;10.768;2023-03-30T09:14:56;8.27;;;2.17;;
19985;SDS011;10154;52.474;10.768;2023-03-30T09:17:09;9.10;;;2.60;;
19985;SDS011;10154;52.474;10.768;2023-03-30T09:19:48;10.40;;;2.40;;
19985;SDS011;10154;52.474;10.768;2023-03-30T09:22:18;9.45;;;2.70;;
19985;SDS011;10154;52.474;10.768;2023-03-30T09:24:44;8.95;;;2.63;;
19985;SDS011;10154;52.474;10.768;2023-03-30T09:29:46;9.45;;;2.50;;
19985;SDS011;10154;52.474;10.768;2023-03-30T09:32:13;7.18;;;2.58;;
19985;SDS011;10154;52.474;10.768;2023-03-30T09:37:26;10.00;;;3.13;;
19985;SDS011;10154;52.474;10.768;2023-03-30T09:39:52;10.75;;;3.22;;
19985;SDS011;10154;52.474;10.768;2023-03-30T09:47:26;6.90;;;2.70;;
19985;SDS011;10154;52.474;10.768;2023-03-30T09:49:56;8.57;;;3.00;;
19985;SDS011;10154;52.474;10.768;2023-03-30T09:52:23;13.50;;;2.95;;
19985;SDS011;10154;52.474;10.768;2023-03-30T09:54:50;8.27;;;2.70;;
19985;SDS011;10154;52.474;10.768;2023-03-30T09:57:23;10.93;;;3.20;;
19985;SDS011;10154;52.474;10.768;2023-03-30T09:59:56;15.45;;;3.15;;
19985;SDS011;10154;52.474;10.768;2023-03-30T10:02:23;8.57;;;2.55;;
19985;SDS011;10154;52.474;10.768;2023-03-30T10:09:54;9.23;;;2.63;;
19985;SDS011;10154;52.474;10.768;2023-03-30T10:12:20;7.57;;;2.55;;
19985;SDS011;10154;52.474;10.768;2023-03-30T10:14:52;8.82;;;2.70;;
19985;SDS011;10154;52.474;10.768;2023-03-30T10:17:19;8.68;;;2.80;;
19985;SDS011;10154;52.474;10.768;2023-03-30T10:19:46;7.57;;;2.30;;
19985;SDS011;10154;52.474;10.768;2023-03-30T10:22:15;11.48;;;2.80;;
19985;SDS011;10154;52.474;10.768;2023-03-30T10:24:49;8.30;;;2.42;;
19985;SDS011;10154;52.474;10.768;2023-03-30T10:27:17;7.47;;;2.38;;
19985;SDS011;10154;52.474;10.768;2023-03-30T10:29:46;9.13;;;2.30;;
19985;SDS011;10154;52.474;10.768;2023-03-30T10:32:18;7.50;;;2.20;;
19985;SDS011;10154;52.474;10.768;2023-03-30T10:37:29;5.72;;;1.90;;
19985;SDS011;10154;52.474;10.768;2023-03-30T10:39:56;8.52;;;2.42;;
19985;SDS011;10154;52.474;10.768;2023-03-30T10:42:23;7.80;;;2.13;;
19985;SDS011;10154;52.474;10.768;2023-03-30T10:44:53;5.07;;;2.30;;
19985;SDS011;10154;52.474;10.768;2023-03-30T10:50:31;11.60;;;2.50;;
19985;SDS011;10154;52.474;10.768;2023-03-30T10:55:49;5.72;;;1.92;;
19985;SDS011;10154;52.474;10.768;2023-03-30T10:58:40;6.82;;;1.90;;
19985;SDS011;10154;52.474;10.768;2023-03-30T11:01:17;7.85;;;2.50;;
19985;SDS011;10154;52.474;10.768;2023-03-30T11:03:53;6.95;;;2.20;;
19985;SDS011;10154;52.474;10.768;2023-03-30T11:06:26;3.88;;;2.50;;
19985;SDS011;10154;52.474;10.768;2023-03-30T11:08:55;7.45;;;2.40;;
19985;SDS011;10154;52.474;10.768;2023-03-30T11:11:33;9.35;;;2.63;;
19985;SDS011;10154;52.474;10.768;2023-03-30T11:14:09;5.47;;;2.60;;
19985;SDS011;10154;52.474;10.768;2023-03-30T11:16:45;10.77;;;2.60;;
19985;SDS011;10154;52.474;10.768;2023-03-30T11:19:34;4.90;;;2.65;;
19985;SDS011;10154;52.474;10.768;2023-03-30T11:22:10;7.07;;;2.35;;
19985;SDS011;10154;52.474;10.768;2023-03-30T11:24:59;8.10;;;2.13;;
19985;SDS011;10154;52.474;10.768;2023-03-30T11:35:35;5.30;;;2.22;;
19985;SDS011;10154;52.474;10.768;2023-03-30T11:38:10;8.95;;;2.85;;
19985;SDS011;10154;52.474;10.768;2023-03-30T11:40:43;8.45;;;2.80;;
19985;SDS011;10154;52.474;10.768;2023-03-30T11:43:19;6.32;;;2.28;;
19985;SDS011;10154;52.474;10.768;2023-03-30T11:45:51;5.43;;;2.25;;
19985;SDS011;10154;52.474;10.768;2023-03-30T11:51:25;5.15;;;1.73;;
19985;SDS011;10154;52.474;10.768;2023-03-30T12:02:39;2.97;;;1.30;;
19985;SDS011;10154;52.474;10.768;2023-03-30T12:05:10;1.10;;;1.00;;
19985;SDS011;10154;52.474;10.768;2023-03-30T12:10:40;1.50;;;1.15;;
19985;SDS011;10154;52.474;10.768;2023-03-30T12:13:13;4.30;;;1.40;;
19985;SDS011;10154;52.474;10.768;2023-03-30T12:21:20;5.73;;;1.60;;
19985;SDS011;10154;52.474;10.768;2023-03-30T12:23:59;4.07;;;1.30;;
19985;SDS011;10154;52.474;10.768;2023-03-30T12:26:38;5.00;;;1.70;;
19985;SDS011;10154;52.474;10.768;2023-03-30T12:34:17;5.35;;;1.40;;
19985;SDS011;10154;52.474;10.768;2023-03-30T12:36:53;2.97;;;1.40;;
19985;SDS011;10154;52.474;10.768;2023-03-30T12:39:43;2.95;;;1.20;;
19985;SDS011;10154;52.474;10.768;2023-03-30T12:42:39;3.10;;;1.30;;
19985;SDS011;10154;52.474;10.768;2023-03-30T12:48:00;7.63;;;1.65;;
19985;SDS011;10154;52.474;10.768;2023-03-30T13:04:35;6.40;;;2.13;;
19985;SDS011;10154;52.474;10.768;2023-03-30T13:07:03;8.27;;;2.47;;
19985;SDS011;10154;52.474;10.768;2023-03-30T13:09:31;9.07;;;2.13;;
19985;SDS011;10154;52.474;10.768;2023-03-30T13:19:25;8.13;;;2.20;;
19985;SDS011;10154;52.474;10.768;2023-03-30T13:29:38;6.03;;;1.75;;
19985;SDS011;10154;52.474;10.768;2023-03-30T13:39:35;6.10;;;1.58;;
19985;SDS011;10154;52.474;10.768;2023-03-30T13:45:06;5.07;;;1.60;;
19985;SDS011;10154;52.474;10.768;2023-03-30T13:48:13;5.50;;;1.70;;
19985;SDS011;10154;52.474;10.768;2023-03-30T13:50:34;4.28;;;1.50;;
19985;SDS011;10154;52.474;10.768;2023-03-30T13:53:00;8.45;;;1.60;;
19985;SDS011;10154;52.474;10.768;2023-03-30T13:55:32;5.80;;;1.67;;
19985;SDS011;10154;52.474;10.768;2023-03-30T13:58:01;3.20;;;1.33;;
19985;SDS011;10154;52.474;10.768;2023-03-30T14:08:30;4.78;;;1.50;;
19985;SDS011;10154;52.474;10.768;2023-03-30T14:11:02;3.95;;;1.20;;
19985;SDS011;10154;52.474;10.768;2023-03-30T14:13:30;4.28;;;1.30;;
19985;SDS011;10154;52.474;10.768;2023-03-30T14:15:57;5.30;;;1.30;;
19985;SDS011;10154;52.474;10.768;2023-03-30T14:18:22;5.75;;;1.40;;
19985;SDS011;10154;52.474;10.768;2023-03-30T14:20:50;10.23;;;1.65;;
19985;SDS011;10154;52.474;10.768;2023-03-30T14:23:19;3.80;;;1.00;;
19985;SDS011;10154;52.474;10.768;2023-03-30T14:26:17;3.83;;;1.20;;
19985;SDS011;10154;52.474;10.768;2023-03-30T14:28:46;5.63;;;1.20;;
19985;SDS011;10154;52.474;10.768;2023-03-30T14:31:18;6.25;;;1.35;;
19985;SDS011;10154;52.474;10.768;2023-03-30T14:33:45;9.88;;;1.77;;
19985;SDS011;10154;52.474;10.768;2023-03-30T14:36:12;4.90;;;1.25;;
19985;SDS011;10154;52.474;10.768;2023-03-30T14:38:40;3.92;;;1.02;;
19985;SDS011;10154;52.474;10.768;2023-03-30T14:41:09;4.13;;;1.50;;
19985;SDS011;10154;52.474;10.768;2023-03-30T14:43:38;7.25;;;1.55;;
19985;SDS011;10154;52.474;10.768;2023-03-30T14:46:06;6.18;;;1.63;;
19985;SDS011;10154;52.474;10.768;2023-03-30T14:48:34;7.97;;;1.70;;
19985;SDS011;10154;52.474;10.768;2023-03-30T14:51:01;7.30;;;1.52;;
19985;SDS011;10154;52.474;10.768;2023-03-30T14:53:28;6.40;;;1.50;;
19985;SDS011;10154;52.474;10.768;2023-03-30T14:55:56;4.20;;;1.20;;
19985;SDS011;10154;52.474;10.768;2023-03-30T14:58:24;8.90;;;1.52;;
19985;SDS011;10154;52.474;10.768;2023-03-30T15:00:52;4.28;;;1.20;;
19985;SDS011;10154;52.474;10.768;2023-03-30T15:03:21;10.65;;;1.95;;
19985;SDS011;10154;52.474;10.768;2023-03-30T15:05:47;7.25;;;1.50;;
19985;SDS011;10154;52.474;10.768;2023-03-30T15:08:58;8.40;;;1.80;;
19985;SDS011;10154;52.474;10.768;2023-03-30T15:11:06;7.03;;;1.50;;
19985;SDS011;10154;52.474;10.768;2023-03-30T15:13:38;8.48;;;1.70;;
19985;SDS011;10154;52.474;10.768;2023-03-30T15:16:06;6.63;;;1.55;;
19985;SDS011;10154;52.474;10.768;2023-03-30T15:18:32;6.25;;;1.60;;
19985;SDS011;10154;52.474;10.768;2023-03-30T15:20:58;9.00;;;2.08;;
19985;SDS011;10154;52.474;10.768;2023-03-30T15:23:25;7.68;;;1.75;;
19985;SDS011;10154;52.474;10.768;2023-03-30T15:25:58;9.10;;;1.88;;
19985;SDS011;10154;52.474;10.768;2023-03-30T15:28:24;6.88;;;1.90;;
19985;SDS011;10154;52.474;10.768;2023-03-30T15:30:55;5.28;;;1.40;;
19985;SDS011;10154;52.474;10.768;2023-03-30T15:36:25;7.30;;;1.85;;
19985;SDS011;10154;52.474;10.768;2023-03-30T15:39:02;5.75;;;1.60;;
19985;SDS011;10154;52.474;10.768;2023-03-30T15:44:11;5.93;;;1.60;;
19985;SDS011;10154;52.474;10.768;2023-03-30T15:46:41;8.57;;;1.70;;
19985;SDS011;10154;52.474;10.768;2023-03-30T15:49:08;6.75;;;1.73;;
19985;SDS011;10154;52.474;10.768;2023-03-30T15:51:38;7.57;;;1.48;;
19985;SDS011;10154;52.474;10.768;2023-03-30T15:54:16;6.13;;;1.60;;
19985;SDS011;10154;52.474;10.768;2023-03-30T15:57:04;4.93;;;1.10;;
19985;SDS011;10154;52.474;10.768;2023-03-30T15:59:35;3.58;;;1.05;;
19985;SDS011;10154;52.474;10.768;2023-03-30T16:02:12;8.43;;;1.50;;
19985;SDS011;10154;52.474;10.768;2023-03-30T16:04:45;8.25;;;1.80;;
19985;SDS011;10154;52.474;10.768;2023-03-30T16:07:14;9.35;;;1.60;;
19985;SDS011;10154;52.474;10.768;2023-03-30T16:09:41;4.53;;;1.67;;
19985;SDS011;10154;52.474;10.768;2023-03-30T16:12:10;7.03;;;1.80;;
19985;SDS011;10154;52.474;10.768;2023-03-30T16:14:38;7.28;;;2.00;;
19985;SDS011;10154;52.474;10.768;2023-03-30T16:17:03;10.45;;;2.00;;
19985;SDS011;10154;52.474;10.768;2023-03-30T16:19:29;6.22;;;1.77;;
19985;SDS011;10154;52.474;10.768;2023-03-30T16:21:54;10.00;;;1.77;;
19985;SDS011;10154;52.474;10.768;2023-03-30T16:24:19;8.45;;;1.60;;
19985;SDS011;10154;52.474;10.768;2023-03-30T16:26:45;6.85;;;1.73;;
19985;SDS011;10154;52.474;10.768;2023-03-30T16:29:17;7.25;;;1.70;;
19985;SDS011;10154;52.474;10.768;2023-03-30T16:31:45;15.50;;;2.10;;
19985;SDS011;10154;52.474;10.768;2023-03-30T16:34:11;9.90;;;2.00;;
19985;SDS011;10154;52.474;10.768;2023-03-30T16:36:37;9.70;;;1.98;;
19985;SDS011;10154;52.474;10.768;2023-03-30T16:39:02;12.55;;;2.20;;
19985;SDS011;10154;52.474;10.768;2023-03-30T16:41:29;7.25;;;2.03;;
19985;SDS011;10154;52.474;10.768;2023-03-30T16:43:55;7.60;;;1.80;;
19985;SDS011;10154;52.474;10.768;2023-03-30T16:46:20;7.73;;;1.43;;
19985;SDS011;10154;52.474;10.768;2023-03-30T16:48:46;6.70;;;1.40;;
19985;SDS011;10154;52.474;10.768;2023-03-30T16:51:12;11.45;;;2.13;;
19985;SDS011;10154;52.474;10.768;2023-03-30T16:53:38;7.72;;;1.92;;
19985;SDS011;10154;52.474;10.768;2023-03-30T16:56:04;12.90;;;1.87;;
19985;SDS011;10154;52.474;10.768;2023-03-30T16:58:30;4.63;;;1.30;;
19985;SDS011;10154;52.474;10.768;2023-03-30T17:00:55;6.00;;;1.50;;
19985;SDS011;10154;52.474;10.768;2023-03-30T17:03:26;8.70;;;1.70;;
19985;SDS011;10154;52.474;10.768;2023-03-30T17:05:52;7.47;;;1.30;;
19985;SDS011;10154;52.474;10.768;2023-03-30T17:08:19;5.38;;;1.35;;
19985;SDS011;10154;52.474;10.768;2023-03-30T17:10:47;5.50;;;1.20;;
19985;SDS011;10154;52.474;10.768;2023-03-30T17:13:13;7.50;;;1.23;;
19985;SDS011;10154;52.474;10.768;2023-03-30T17:15:38;4.23;;;1.10;;
19985;SDS011;10154;52.474;10.768;2023-03-30T17:18:05;7.67;;;1.93;;
19985;SDS011;10154;52.474;10.768;2023-03-30T17:20:43;9.07;;;1.50;;
19985;SDS011;10154;52.474;10.768;2023-03-30T17:23:12;7.03;;;1.60;;